Time;durP1;ratioP1;P1;durP2;ratioP2;P2;SDS_P1;SDS_P2;PMS_P1;PMS_P2;Temp;Humidity;BMP_temperature;BMP_pressure;BME280_temperature;BME280_humidity;BME280_pressure;Samples;Min_cycle;Max_cycle;Signal;HPM_P1;HPM_P2
2024/04/01 00:01:57;;;;;;;9.63;5.80;;;18.40;99.90;;;;;;5054426;28;20033;-57
2024/04/01 00:04:23;;;;;;;11.85;6.07;;;18.40;99.90;;;;;;5053440;28;20031;-58
2024/04/01 00:06:48;;;;;;;11.48;5.72;;;18.40;99.90;;;;;;5053673;28;20036;-57
2024/04/01 00:09:14;;;;;;;7.90;5.05;;;18.40;99.90;;;;;;5052863;28;20044;-59
2024/04/01 00:11:40;;;;;;;8.18;5.45;;;18.40;99.90;;;;;;5053269;28;20104;-59
2024/04/01 00:14:06;;;;;;;9.30;5.38;;;18.40;99.90;;;;;;5053320;28;20021;-58
2024/04/01 00:16:31;;;;;;;8.02;5.50;;;18.40;99.90;;;;;;5053911;28;20060;-58
2024/04/01 00:18:57;;;;;;;8.85;5.13;;;18.40;99.90;;;;;;5035345;28;20021;-59
2024/04/01 00:21:23;;;;;;;9.80;5.13;;;18.40;99.90;;;;;;5053503;28;20063;-58
2024/04/01 00:23:53;;;;;;;7.00;4.85;;;18.40;99.90;;;;;;5053677;28;20013;-59
2024/04/01 00:26:19;;;;;;;9.30;5.20;;;18.40;99.90;;;;;;5053257;28;20041;-58
2024/04/01 00:28:44;;;;;;;7.55;4.57;;;18.40;99.90;;;;;;5053283;28;20346;-59
2024/04/01 00:31:10;;;;;;;7.65;4.78;;;18.40;99.90;;;;;;5035273;28;20033;-59
2024/04/01 00:33:36;;;;;;;5.85;4.10;;;18.40;99.90;;;;;;5035031;28;20480;-59
2024/04/01 00:36:02;;;;;;;8.77;5.03;;;18.40;99.90;;;;;;5052857;28;20025;-59
2024/04/01 00:38:28;;;;;;;8.20;4.57;;;18.40;99.90;;;;;;5053283;28;20036;-60
2024/04/01 00:40:53;;;;;;;7.45;4.57;;;18.40;99.90;;;;;;5052445;28;20484;-58
2024/04/01 00:43:19;;;;;;;6.90;4.68;;;18.40;99.90;;;;;;5053265;28;20049;-58
2024/04/01 00:45:46;;;;;;;7.68;4.80;;;18.40;99.90;;;;;;5052866;28;20108;-58
2024/04/01 00:48:16;;;;;;;5.83;4.37;;;18.40;99.90;;;;;;5052901;28;20036;-57
2024/04/01 00:55:49;;;;;;;7.47;4.80;;;18.40;99.90;;;;;;5089243;28;20036;-45
2024/04/01 00:58:16;;;;;;;5.90;3.95;;;18.40;99.90;;;;;;5092114;28;20493;-44
2024/04/01 01:00:42;;;;;;;5.30;3.73;;;18.40;99.90;;;;;;5091640;28;20030;-45
2024/04/01 01:03:09;;;;;;;6.95;4.32;;;18.40;99.90;;;;;;5091849;28;20039;-44
2024/04/01 01:05:36;;;;;;;5.60;3.85;;;18.40;99.90;;;;;;5092131;28;20083;-44
2024/04/01 01:08:02;;;;;;;6.30;4.18;;;18.40;99.90;;;;;;5091947;28;20032;-45
2024/04/01 01:10:30;;;;;;;6.55;4.25;;;18.40;99.90;;;;;;5092018;28;20042;-44
2024/04/01 01:12:56;;;;;;;5.63;3.60;;;18.30;99.90;;;;;;5090802;28;20479;-45
2024/04/01 01:15:23;;;;;;;5.43;3.45;;;18.40;99.90;;;;;;5089834;28;20074;-46
2024/04/01 01:17:49;;;;;;;8.73;4.57;;;18.40;99.90;;;;;;5092038;28;20024;-46
2024/04/01 01:20:15;;;;;;;5.80;3.72;;;18.40;99.90;;;;;;5090740;28;20032;-45
2024/04/01 01:22:42;;;;;;;6.45;3.80;;;18.40;99.90;;;;;;5095136;28;20087;-51
2024/04/01 01:25:08;;;;;;;7.32;3.70;;;18.40;99.90;;;;;;5095913;28;20099;-45
2024/04/01 01:27:36;;;;;;;6.47;3.67;;;18.40;99.90;;;;;;5095843;28;20157;-47
2024/04/01 01:30:15;;;;;;;5.60;3.70;;;18.30;99.90;;;;;;5094109;28;20020;-46
2024/04/01 01:32:54;;;;;;;4.82;3.20;;;18.40;99.90;;;;;;5095974;28;20471;-45
2024/04/01 01:35:26;;;;;;;6.32;3.75;;;18.30;99.90;;;;;;5083752;28;20137;-46
2024/04/01 01:37:53;;;;;;;4.95;3.63;;;18.30;99.90;;;;;;5095561;28;20087;-46
2024/04/01 01:40:19;;;;;;;5.53;3.50;;;18.30;99.90;;;;;;5096178;28;20035;-46
2024/04/01 01:42:45;;;;;;;5.60;3.42;;;18.30;99.90;;;;;;5096090;28;20024;-45
2024/04/01 01:45:12;;;;;;;5.53;3.42;;;18.30;99.90;;;;;;5095397;28;20026;-46
2024/04/01 01:47:38;;;;;;;5.45;3.08;;;18.30;99.90;;;;;;5093676;28;20337;-46
2024/04/01 01:50:06;;;;;;;6.95;3.97;;;18.30;99.90;;;;;;5095821;28;20051;-45
2024/04/01 01:52:32;;;;;;;5.90;3.75;;;18.30;99.90;;;;;;5094883;28;20024;-45
2024/04/01 01:54:58;;;;;;;8.18;4.00;;;18.30;99.90;;;;;;5095809;28;20101;-45
2024/04/01 01:57:25;;;;;;;8.75;3.83;;;18.30;99.90;;;;;;5095011;28;20069;-47
2024/04/01 01:59:50;;;;;;;5.80;3.22;;;18.30;99.90;;;;;;5093811;28;20052;-46
2024/04/01 02:02:17;;;;;;;5.47;3.53;;;18.30;99.90;;;;;;5094369;28;20058;-48
2024/04/01 02:04:43;;;;;;;4.32;2.88;;;18.30;99.90;;;;;;5095310;28;20061;-47
2024/04/01 02:07:10;;;;;;;4.55;3.22;;;18.30;99.90;;;;;;5094936;28;20052;-48
2024/04/01 02:09:36;;;;;;;4.05;2.95;;;18.40;99.90;;;;;;5095440;28;20020;-47
2024/04/01 02:12:07;;;;;;;4.68;3.13;;;18.30;99.90;;;;;;5095344;28;20127;-48
2024/04/01 02:14:37;;;;;;;7.93;3.50;;;18.30;99.90;;;;;;5094747;28;20103;-47
2024/04/01 02:17:09;;;;;;;5.47;3.20;;;18.30;99.90;;;;;;5081845;28;20031;-46
2024/04/01 02:19:36;;;;;;;6.80;3.50;;;18.30;99.90;;;;;;5095234;28;20027;-46
2024/04/01 02:22:02;;;;;;;5.10;2.92;;;18.30;99.90;;;;;;5094442;28;20536;-45
2024/04/01 02:24:28;;;;;;;6.95;2.92;;;18.30;99.90;;;;;;5095110;28;20035;-45
2024/04/01 02:26:55;;;;;;;5.93;2.90;;;18.30;99.90;;;;;;5094849;28;20028;-44
2024/04/01 02:29:22;;;;;;;4.97;2.60;;;18.30;99.90;;;;;;5094645;28;20028;-45
2024/04/01 02:31:48;;;;;;;5.05;2.75;;;18.30;99.90;;;;;;5093581;28;20070;-46
2024/04/01 02:34:15;;;;;;;5.93;2.80;;;18.30;99.90;;;;;;5093835;28;20108;-45
2024/04/01 02:36:41;;;;;;;4.65;2.90;;;18.30;99.90;;;;;;5093177;28;20020;-46
2024/04/01 02:39:16;;;;;;;5.10;3.10;;;18.30;99.90;;;;;;5094893;28;20479;-46
2024/04/01 02:41:43;;;;;;;6.50;3.30;;;18.40;99.90;;;;;;5094768;28;20494;-45
2024/04/01 02:44:09;;;;;;;4.27;2.73;;;18.40;99.90;;;;;;5093158;28;20039;-44
2024/04/01 02:46:35;;;;;;;7.00;2.78;;;18.30;99.90;;;;;;5094438;28;20281;-46
2024/04/01 02:49:01;;;;;;;5.68;2.72;;;18.30;99.90;;;;;;5093449;28;20474;-45
2024/04/01 02:51:26;;;;;;;4.22;2.70;;;18.30;99.90;;;;;;5094198;28;20020;-49
2024/04/01 02:53:53;;;;;;;4.82;3.00;;;18.40;99.90;;;;;;5094629;28;20050;-46
2024/04/01 02:56:19;;;;;;;4.97;3.03;;;18.30;99.90;;;;;;5094611;28;20060;-45
2024/04/01 02:58:45;;;;;;;4.10;2.67;;;18.30;99.90;;;;;;5082647;28;20452;-44
2024/04/01 03:01:11;;;;;;;5.63;2.88;;;18.30;99.90;;;;;;5090901;28;20028;-44
2024/04/01 03:03:37;;;;;;;4.40;2.67;;;18.30;99.90;;;;;;5094431;28;20016;-44
2024/04/01 03:06:04;;;;;;;5.93;2.35;;;18.30;99.90;;;;;;5087203;28;20472;-44
2024/04/01 03:08:30;;;;;;;6.13;3.13;;;18.30;99.90;;;;;;5075611;28;20035;-44
2024/04/01 03:11:00;;;;;;;3.75;2.50;;;18.30;99.90;;;;;;5084912;28;20157;-45
2024/04/01 03:13:27;;;;;;;4.75;2.85;;;18.30;99.90;;;;;;5075660;28;20061;-44
2024/04/01 03:15:57;;;;;;;5.70;3.30;;;18.30;99.90;;;;;;5075514;28;20028;-44
2024/04/01 03:18:24;;;;;;;5.03;2.40;;;18.30;99.90;;;;;;5079427;28;20028;-45
2024/04/01 03:20:52;;;;;;;5.97;3.30;;;18.30;99.90;;;;;;5094207;28;20091;-44
2024/04/01 03:23:18;;;;;;;5.65;3.20;;;18.30;99.90;;;;;;5093900;28;20024;-45
2024/04/01 03:25:50;;;;;;;4.07;2.60;;;18.30;99.90;;;;;;5093797;28;20032;-43
2024/04/01 03:28:16;;;;;;;4.53;3.00;;;18.20;99.90;;;;;;5093695;28;20020;-44
2024/04/01 03:30:42;;;;;;;5.60;2.60;;;18.20;99.90;;;;;;5090981;28;20371;-44
2024/04/01 03:33:08;;;;;;;3.92;2.58;;;18.20;99.90;;;;;;5093273;28;20024;-44
2024/04/01 03:35:34;;;;;;;6.10;2.95;;;18.20;99.90;;;;;;5093973;28;20027;-44
2024/04/01 03:38:00;;;;;;;4.00;2.40;;;18.20;99.90;;;;;;5094001;28;20515;-44
2024/04/01 03:40:26;;;;;;;5.03;2.72;;;18.20;99.90;;;;;;5094058;28;20114;-44
2024/04/01 03:42:53;;;;;;;4.55;2.80;;;18.20;99.90;;;;;;5094321;28;20169;-44
2024/04/01 03:45:19;;;;;;;4.07;2.25;;;18.20;99.90;;;;;;5093863;28;20497;-44
2024/04/01 03:47:45;;;;;;;5.25;2.80;;;18.20;99.90;;;;;;5093681;28;20123;-44
2024/04/01 03:50:11;;;;;;;4.85;3.05;;;18.20;99.90;;;;;;5093681;28;20043;-45
2024/04/01 03:52:38;;;;;;;5.10;2.65;;;18.20;99.90;;;;;;5093714;28;20113;-44
2024/04/01 03:55:04;;;;;;;3.72;2.40;;;18.20;99.90;;;;;;5066724;22;20045;-57
2024/04/01 03:57:30;;;;;;;5.13;2.95;;;18.10;99.90;;;;;;5033246;28;20022;-56
2024/04/01 03:59:56;;;;;;;4.95;2.53;;;18.10;99.90;;;;;;5015348;28;20045;-56
2024/04/01 04:02:21;;;;;;;4.47;2.63;;;18.10;99.90;;;;;;5033852;28;20105;-58
2024/04/01 04:04:47;;;;;;;5.93;3.10;;;18.10;99.90;;;;;;5033154;28;20469;-57
2024/04/01 04:07:13;;;;;;;3.70;2.67;;;18.10;99.90;;;;;;5033089;28;20097;-58
2024/04/01 04:09:39;;;;;;;4.72;2.67;;;18.10;99.90;;;;;;5033036;28;20105;-58
2024/04/01 04:12:06;;;;;;;6.28;3.05;;;18.10;99.90;;;;;;5033143;28;20028;-58
2024/04/01 04:14:32;;;;;;;7.18;2.90;;;18.10;99.90;;;;;;5033071;28;20420;-58
2024/04/01 04:16:57;;;;;;;5.85;2.33;;;18.10;99.90;;;;;;5032988;28;20029;-59
2024/04/01 04:19:25;;;;;;;5.40;2.90;;;18.10;99.90;;;;;;5033083;28;20029;-59
2024/04/01 04:21:51;;;;;;;4.15;2.33;;;18.10;99.90;;;;;;5033244;28;20014;-60
2024/04/01 04:24:17;;;;;;;3.85;2.63;;;18.10;99.90;;;;;;5032845;28;20028;-58
2024/04/01 04:26:43;;;;;;;4.18;2.55;;;18.10;99.90;;;;;;5032669;28;20091;-58
2024/04/01 04:29:09;;;;;;;5.40;2.92;;;18.00;99.90;;;;;;5032881;28;20030;-58
2024/04/01 04:31:35;;;;;;;3.15;2.50;;;18.00;99.90;;;;;;5015052;28;20026;-58
2024/04/01 04:34:00;;;;;;;4.47;2.45;;;18.00;99.90;;;;;;5032769;28;20030;-58
2024/04/01 04:36:27;;;;;;;4.55;2.42;;;18.00;99.90;;;;;;5032704;28;20068;-58
2024/04/01 04:38:53;;;;;;;4.72;2.85;;;18.00;99.90;;;;;;5032855;28;20096;-59
2024/04/01 04:41:22;;;;;;;4.55;2.85;;;18.00;99.90;;;;;;5015104;28;20521;-58
2024/04/01 04:43:48;;;;;;;5.97;2.20;;;18.00;99.90;;;;;;5014887;28;20021;-58
2024/04/01 04:46:14;;;;;;;4.68;2.35;;;18.00;99.90;;;;;;5032547;28;20044;-58
2024/04/01 04:48:44;;;;;;;5.05;2.53;;;18.00;99.90;;;;;;5032424;28;20029;-58
2024/04/01 04:51:11;;;;;;;5.18;2.50;;;18.00;99.90;;;;;;5032609;28;20448;-59
2024/04/01 04:53:38;;;;;;;4.85;2.72;;;18.00;99.90;;;;;;5032216;28;20049;-59
2024/04/01 04:56:04;;;;;;;4.70;2.53;;;18.00;99.90;;;;;;5030517;28;20029;-58
2024/04/01 04:58:30;;;;;;;3.55;2.40;;;18.00;99.90;;;;;;5032312;28;20389;-58
2024/04/01 05:00:56;;;;;;;5.03;2.67;;;18.00;99.90;;;;;;5030860;28;20025;-58
2024/04/01 05:03:22;;;;;;;3.83;2.22;;;18.00;99.90;;;;;;5031768;28;20032;-58
2024/04/01 05:05:48;;;;;;;4.07;2.40;;;18.00;99.90;;;;;;5031282;28;20052;-58
2024/04/01 05:08:14;;;;;;;4.57;2.20;;;18.00;99.90;;;;;;5030391;28;20022;-59
2024/04/01 05:10:39;;;;;;;4.07;2.50;;;18.00;99.90;;;;;;5031397;28;20096;-59
2024/04/01 05:13:05;;;;;;;4.53;1.95;;;18.00;99.90;;;;;;5032135;28;20060;-59
2024/04/01 05:15:31;;;;;;;2.67;2.00;;;18.00;99.90;;;;;;5032021;28;20445;-60
2024/04/01 05:17:57;;;;;;;6.95;2.40;;;17.90;99.90;;;;;;5032309;28;20025;-60
2024/04/01 05:20:23;;;;;;;5.13;2.47;;;17.90;99.90;;;;;;5032563;28;20515;-58
2024/04/01 05:22:49;;;;;;;3.85;2.45;;;18.00;99.90;;;;;;5030832;28;20112;-58
2024/04/01 05:25:15;;;;;;;3.85;2.38;;;17.90;99.90;;;;;;5032122;28;20401;-58
2024/04/01 05:27:41;;;;;;;3.80;2.00;;;17.90;99.90;;;;;;5014160;28;20061;-60
2024/04/01 05:30:11;;;;;;;5.40;2.67;;;17.90;99.90;;;;;;5031868;28;20034;-60
2024/04/01 05:32:38;;;;;;;3.78;2.05;;;17.90;99.90;;;;;;5014309;28;20036;-60
2024/04/01 05:35:05;;;;;;;6.30;2.67;;;17.90;99.90;;;;;;5031927;28;20049;-60
2024/04/01 05:37:34;;;;;;;4.13;2.03;;;17.90;99.90;;;;;;5032168;28;20029;-60
2024/04/01 05:40:01;;;;;;;5.03;2.20;;;17.90;99.90;;;;;;5031855;28;20033;-60
2024/04/01 05:42:26;;;;;;;10.73;2.50;;;17.90;99.90;;;;;;5032125;28;20049;-60
2024/04/01 05:44:52;;;;;;;4.00;1.83;;;17.90;99.90;;;;;;5031966;28;20103;-59
2024/04/01 05:47:18;;;;;;;4.53;2.00;;;17.90;99.90;;;;;;5031805;28;20107;-60
2024/04/01 05:49:44;;;;;;;6.18;2.88;;;17.90;99.90;;;;;;5031832;28;20021;-60
2024/04/01 05:52:10;;;;;;;4.95;2.90;;;17.90;99.90;;;;;;5031659;28;20057;-59
2024/04/01 05:54:36;;;;;;;5.78;1.83;;;17.90;99.90;;;;;;5013829;28;20076;-60
2024/04/01 05:57:02;;;;;;;5.00;2.08;;;17.90;99.90;;;;;;5031575;28;20029;-59
2024/04/01 05:59:28;;;;;;;3.83;2.05;;;17.90;99.90;;;;;;5032085;28;20537;-59
2024/04/01 06:01:56;;;;;;;3.55;1.73;;;17.90;99.90;;;;;;5031831;28;20108;-59
2024/04/01 06:04:24;;;;;;;3.88;2.20;;;17.90;99.90;;;;;;5031606;28;20025;-60
2024/04/01 06:06:51;;;;;;;6.45;2.03;;;17.90;99.90;;;;;;5032010;28;20412;-60
2024/04/01 06:09:17;;;;;;;4.03;2.10;;;17.90;99.90;;;;;;5035491;28;20098;-59
2024/04/01 06:11:43;;;;;;;4.57;1.98;;;17.90;99.90;;;;;;5035309;28;20029;-59
2024/04/01 06:14:09;;;;;;;5.22;2.45;;;17.90;99.90;;;;;;5035439;28;20040;-59
2024/04/01 06:16:35;;;;;;;3.15;2.33;;;17.90;99.90;;;;;;5035254;28;20021;-60
2024/04/01 06:19:01;;;;;;;3.42;1.85;;;17.80;99.90;;;;;;5035410;28;20524;-59
2024/04/01 06:21:27;;;;;;;4.10;2.00;;;17.90;99.90;;;;;;5035530;28;20030;-59
2024/04/01 06:23:53;;;;;;;4.57;1.98;;;17.80;99.90;;;;;;5035202;28;20025;-59
2024/04/01 06:26:19;;;;;;;3.20;2.15;;;17.90;99.90;;;;;;5035004;28;20037;-59
2024/04/01 06:28:45;;;;;;;6.65;2.42;;;17.80;99.90;;;;;;5035009;28;20076;-59
2024/04/01 06:31:11;;;;;;;2.95;1.90;;;17.80;99.90;;;;;;5035147;28;20024;-60
2024/04/01 06:33:37;;;;;;;3.85;1.95;;;17.90;99.90;;;;;;5035096;28;20025;-59
2024/04/01 06:36:04;;;;;;;2.97;1.63;;;17.80;99.90;;;;;;5034913;28;20499;-60
2024/04/01 06:38:31;;;;;;;4.63;2.28;;;17.80;99.90;;;;;;5017258;28;20112;-59
2024/04/01 06:40:57;;;;;;;3.72;1.92;;;17.90;99.90;;;;;;5035042;28;20030;-59
2024/04/01 06:43:24;;;;;;;4.72;1.95;;;17.90;99.90;;;;;;5034804;28;20083;-59
2024/04/01 06:45:53;;;;;;;5.13;2.85;;;17.80;99.90;;;;;;5034647;28;20035;-60
2024/04/01 06:48:19;;;;;;;6.03;2.38;;;17.80;99.90;;;;;;5035101;28;20432;-60
2024/04/01 06:50:45;;;;;;;3.33;1.55;;;17.90;99.90;;;;;;5034840;28;20029;-60
2024/04/01 06:53:10;;;;;;;2.83;1.75;;;17.90;99.90;;;;;;5034561;28;20070;-60
2024/04/01 06:55:37;;;;;;;4.28;2.08;;;17.90;99.90;;;;;;5034425;28;20129;-60
2024/04/01 06:58:02;;;;;;;3.80;1.50;;;17.90;99.90;;;;;;5034596;28;20032;-60
2024/04/01 07:00:28;;;;;;;3.20;2.03;;;17.90;99.90;;;;;;5016920;28;20074;-60
2024/04/01 07:02:54;;;;;;;6.07;2.03;;;17.80;99.90;;;;;;5016790;28;20021;-60
2024/04/01 07:05:20;;;;;;;3.92;1.63;;;17.90;99.90;;;;;;5034358;28;20482;-61
2024/04/01 07:07:46;;;;;;;2.20;1.67;;;17.90;99.90;;;;;;5034456;28;20025;-60
2024/04/01 07:10:11;;;;;;;5.15;2.05;;;17.90;99.90;;;;;;5034450;28;20485;-60
2024/04/01 07:12:37;;;;;;;4.10;1.85;;;17.90;99.90;;;;;;5034422;28;20424;-60
2024/04/01 07:15:04;;;;;;;4.30;2.22;;;17.90;99.90;;;;;;5034578;28;20018;-60
2024/04/01 07:17:29;;;;;;;3.08;1.73;;;17.80;99.90;;;;;;5034451;28;20026;-60
2024/04/01 07:19:55;;;;;;;3.38;2.28;;;17.90;99.90;;;;;;5033567;28;20036;-59
2024/04/01 07:22:21;;;;;;;3.20;2.03;;;17.90;99.90;;;;;;5034217;28;20045;-59
2024/04/01 07:24:47;;;;;;;3.28;2.17;;;17.90;99.90;;;;;;5034029;28;20038;-61
2024/04/01 07:27:13;;;;;;;3.92;2.03;;;17.90;99.90;;;;;;5033932;28;20030;-59
2024/04/01 07:29:38;;;;;;;4.25;1.88;;;17.90;99.90;;;;;;5033801;28;20026;-59
2024/04/01 07:32:04;;;;;;;5.47;2.20;;;17.90;99.90;;;;;;5016134;28;20061;-59
2024/04/01 07:34:30;;;;;;;3.40;2.30;;;17.90;99.90;;;;;;5033079;28;20022;-59
2024/04/01 07:36:56;;;;;;;2.97;2.10;;;17.90;99.90;;;;;;5033827;28;20495;-59
2024/04/01 07:39:22;;;;;;;3.95;1.73;;;17.90;99.90;;;;;;5033775;28;20106;-59
2024/04/01 07:41:48;;;;;;;4.75;1.92;;;17.90;99.90;;;;;;5033820;28;20378;-60
2024/04/01 07:44:13;;;;;;;2.75;1.90;;;17.90;99.90;;;;;;5033769;28;20029;-59
2024/04/01 07:46:39;;;;;;;3.30;2.00;;;17.90;99.90;;;;;;5033566;28;20044;-59
2024/04/01 07:49:05;;;;;;;4.45;2.38;;;17.90;99.90;;;;;;5033673;28;20033;-59
2024/04/01 07:51:31;;;;;;;4.70;2.10;;;17.90;99.90;;;;;;5033899;28;20065;-59
2024/04/01 07:53:58;;;;;;;4.57;2.20;;;17.90;99.90;;;;;;5015735;28;20512;-59
2024/04/01 07:56:24;;;;;;;3.55;1.90;;;17.90;99.90;;;;;;5033644;28;20025;-58
2024/04/01 07:58:49;;;;;;;4.75;2.35;;;17.90;99.90;;;;;;5033744;28;20055;-59
2024/04/01 08:01:15;;;;;;;3.83;1.92;;;17.90;99.90;;;;;;5033536;28;20107;-59
2024/04/01 08:03:41;;;;;;;4.18;2.17;;;17.90;99.90;;;;;;5033362;28;20029;-59
2024/04/01 08:06:07;;;;;;;4.03;2.15;;;17.90;99.90;;;;;;5033221;28;20095;-59
2024/04/01 08:08:32;;;;;;;3.47;1.90;;;17.90;99.90;;;;;;5033427;28;20032;-59
2024/04/01 08:10:58;;;;;;;4.55;2.03;;;17.90;99.90;;;;;;5032124;28;20104;-60
2024/04/01 08:13:24;;;;;;;4.63;2.10;;;17.90;99.90;;;;;;5031954;28;20021;-60
2024/04/01 08:16:02;;;;;;;2.78;1.67;;;17.90;99.90;;;;;;5033198;28;20359;-59
2024/04/01 08:18:28;;;;;;;3.45;1.73;;;17.90;99.90;;;;;;5033390;28;20030;-59
2024/04/01 08:20:56;;;;;;;3.38;1.85;;;17.90;99.90;;;;;;5034350;28;20102;-59
2024/04/01 08:23:22;;;;;;;6.25;2.10;;;17.90;99.90;;;;;;5033340;28;20021;-59
2024/04/01 08:25:48;;;;;;;5.55;1.70;;;17.90;99.90;;;;;;5033389;28;20548;-59
2024/04/01 08:28:14;;;;;;;4.18;2.45;;;17.90;99.90;;;;;;5033105;28;20025;-59
2024/04/01 08:30:40;;;;;;;4.78;2.20;;;17.90;99.90;;;;;;5032320;28;20119;-60
2024/04/01 08:33:06;;;;;;;5.32;2.50;;;17.90;99.90;;;;;;5033300;28;20022;-59
2024/04/01 08:35:32;;;;;;;5.15;2.28;;;17.90;99.90;;;;;;5032758;28;20373;-59
2024/04/01 08:37:58;;;;;;;3.63;1.90;;;17.90;99.90;;;;;;5032969;28;20035;-59
2024/04/01 08:40:24;;;;;;;4.07;2.42;;;18.00;99.90;;;;;;5033000;28;20384;-58
2024/04/01 08:42:58;;;;;;;3.80;2.42;;;18.00;99.90;;;;;;5015043;28;20393;-59
2024/04/01 08:45:24;;;;;;;3.85;2.50;;;18.00;99.90;;;;;;5015070;28;20108;-58
2024/04/01 08:47:53;;;;;;;5.05;2.45;;;18.00;99.90;;;;;;5032782;28;20033;-59
2024/04/01 08:50:22;;;;;;;4.10;2.13;;;18.00;99.90;;;;;;5014990;28;20152;-58
2024/04/01 08:53:19;;;;;;;2.90;2.30;;;18.00;99.90;;;;;;5032515;28;20374;-58
2024/04/01 08:55:45;;;;;;;6.40;2.92;;;18.00;99.90;;;;;;5032356;28;20045;-58
2024/04/01 08:58:10;;;;;;;6.65;3.17;;;18.00;99.90;;;;;;5032481;28;20033;-59
2024/04/01 09:00:37;;;;;;;6.03;3.72;;;18.00;99.90;;;;;;5031387;28;20030;-58
2024/04/01 09:03:03;;;;;;;5.65;3.42;;;18.00;99.90;;;;;;5032524;28;20444;-57
2024/04/01 09:05:29;;;;;;;6.35;4.15;;;18.00;99.90;;;;;;5032391;28;20061;-59
2024/04/01 09:07:55;;;;;;;6.82;3.78;;;18.00;99.90;;;;;;5032184;28;20116;-58
2024/04/01 09:10:24;;;;;;;6.55;3.60;;;18.00;99.90;;;;;;5032264;28;20378;-59
2024/04/01 09:12:53;;;;;;;6.65;4.18;;;18.10;99.90;;;;;;5032234;28;20075;-59
2024/04/01 09:15:22;;;;;;;7.75;3.90;;;18.10;99.90;;;;;;5014481;28;20033;-58
2024/04/01 09:17:48;;;;;;;10.40;5.85;;;18.10;99.90;;;;;;5032254;28;20053;-58
2024/04/01 09:20:14;;;;;;;9.43;5.40;;;18.10;99.90;;;;;;5032051;28;20032;-58
2024/04/01 09:22:40;;;;;;;10.20;6.20;;;18.10;99.90;;;;;;5032194;28;20029;-59
2024/04/01 09:25:06;;;;;;;8.43;4.60;;;18.10;99.90;;;;;;5032251;28;20086;-59
2024/04/01 09:27:31;;;;;;;11.02;5.35;;;18.10;99.90;;;;;;5031756;28;20080;-59
2024/04/01 09:29:57;;;;;;;9.57;6.10;;;18.10;99.90;;;;;;5031955;28;20366;-59
2024/04/01 09:32:23;;;;;;;11.07;5.90;;;18.20;99.90;;;;;;5031968;28;20116;-59
2024/04/01 09:34:55;;;;;;;9.05;5.10;;;18.10;99.90;;;;;;5032058;28;20024;-58
2024/04/01 09:37:21;;;;;;;7.43;4.97;;;18.20;99.90;;;;;;5031979;28;20033;-59
2024/04/01 09:39:47;;;;;;;9.85;5.70;;;18.20;99.90;;;;;;5031969;28;20406;-59
2024/04/01 09:42:14;;;;;;;8.05;5.88;;;18.20;99.90;;;;;;5032979;28;20022;-58
2024/04/01 09:44:41;;;;;;;9.50;5.53;;;18.20;99.90;;;;;;5036211;28;20107;-59
2024/04/01 09:47:07;;;;;;;10.23;5.20;;;18.20;99.90;;;;;;5034995;28;20037;-59
2024/04/01 09:49:34;;;;;;;9.55;5.82;;;18.20;99.90;;;;;;5035846;28;20048;-58
2024/04/01 09:52:00;;;;;;;11.45;5.45;;;18.20;99.90;;;;;;5035904;28;20025;-59
2024/04/01 09:54:26;;;;;;;9.27;5.50;;;18.30;99.90;;;;;;5035623;28;20042;-59
2024/04/01 09:57:26;;;;;;;10.45;5.93;;;18.30;99.90;;;;;;5035611;28;20032;-58
2024/04/01 10:00:17;;;;;;;9.90;5.95;;;18.30;99.90;;;;;;5035719;28;20114;-59
2024/04/01 10:02:59;;;;;;;10.10;6.43;;;18.30;99.90;;;;;;5035587;28;20024;-59
2024/04/01 10:05:43;;;;;;;11.65;6.63;;;18.30;99.90;;;;;;5035443;28;20028;-59
2024/04/01 10:08:33;;;;;;;11.45;6.13;;;18.40;99.90;;;;;;5035512;28;20080;-59
2024/04/01 10:11:24;;;;;;;11.27;6.30;;;18.40;99.90;;;;;;5017628;28;20017;-59
2024/04/01 10:14:30;;;;;;;9.30;5.47;;;18.40;99.90;;;;;;5035348;28;20034;-58
2024/04/01 10:17:08;;;;;;;11.18;6.47;;;18.40;99.90;;;;;;5035187;28;20025;-58
2024/04/01 10:19:49;;;;;;;;;;;18.50;99.90;;;;;;5035575;28;20025;-58
2024/04/01 10:22:36;;;;;;;9.50;6.00;;;18.60;99.90;;;;;;5017512;28;20257;-58
2024/04/01 10:25:33;;;;;;;11.32;6.55;;;18.50;99.90;;;;;;5035177;28;20518;-59
2024/04/01 10:28:36;;;;;;;10.00;5.70;;;18.50;99.90;;;;;;5035200;28;20042;-59
2024/04/01 10:31:14;;;;;;;9.55;5.93;;;18.50;99.90;;;;;;5035203;28;20025;-60
2024/04/01 10:33:43;;;;;;;11.35;6.90;;;18.60;99.90;;;;;;5035138;28;20029;-59
2024/04/01 10:36:28;;;;;;;9.27;6.13;;;18.60;99.90;;;;;;5035231;28;20057;-59
2024/04/01 10:39:25;;;;;;;11.20;6.10;;;18.60;99.90;;;;;;5017137;28;20025;-58
2024/04/01 10:42:19;;;;;;;10.57;6.55;;;18.60;99.90;;;;;;5034635;28;20025;-60
2024/04/01 10:44:53;;;;;;;10.60;6.63;;;18.60;99.90;;;;;;5016858;28;20030;-59
2024/04/01 10:47:27;;;;;;;11.82;6.60;;;18.60;99.90;;;;;;5034584;28;20040;-59
2024/04/01 10:50:00;;;;;;;9.13;5.68;;;18.60;99.90;;;;;;5016736;28;20334;-59
2024/04/01 10:52:54;;;;;;;8.32;5.93;;;18.70;99.90;;;;;;5034630;28;20028;-59
2024/04/01 10:55:38;;;;;;;12.30;6.50;;;18.70;99.90;;;;;;5015720;28;20045;-59
2024/04/01 10:58:13;;;;;;;8.82;5.70;;;18.70;99.90;;;;;;5034663;28;20022;-60
2024/04/01 11:00:53;;;;;;;11.00;6.03;;;18.70;99.90;;;;;;5034562;28;20025;-60
2024/04/01 11:03:36;;;;;;;9.93;5.57;;;18.70;99.90;;;;;;5034282;28;20108;-59
2024/04/01 11:06:10;;;;;;;8.40;5.50;;;18.70;99.90;;;;;;5034174;28;20080;-60
2024/04/01 11:09:06;;;;;;;9.90;6.28;;;18.80;99.90;;;;;;5034073;28;20087;-60
2024/04/01 11:11:31;;;;;;;10.30;5.68;;;18.80;99.90;;;;;;5034035;28;20025;-59
2024/04/01 11:13:59;;;;;;;11.05;6.03;;;18.90;99.90;;;;;;5034103;28;20112;-60
2024/04/01 11:16:30;;;;;;;10.02;4.97;;;18.80;99.90;;;;;;5032943;28;20029;-60
2024/04/01 11:19:15;;;;;;;10.48;4.97;;;18.80;99.90;;;;;;5016248;28;20147;-60
2024/04/01 11:21:51;;;;;;;8.27;4.60;;;18.90;99.90;;;;;;5034066;28;20108;-60
2024/04/01 11:24:33;;;;;;;11.75;5.72;;;18.90;99.90;;;;;;5033908;28;20481;-61
2024/04/01 11:27:44;;;;;;;8.88;5.18;;;18.90;99.90;;;;;;5015977;28;20466;-61
2024/04/01 11:30:09;;;;;;;9.30;5.75;;;18.90;99.90;;;;;;5033733;28;20034;-60
2024/04/01 11:32:38;;;;;;;8.60;4.50;;;19.00;99.90;;;;;;5016228;28;20036;-60
2024/04/01 11:35:23;;;;;;;8.93;5.15;;;19.00;99.90;;;;;;5033828;28;20105;-60
2024/04/01 11:38:02;;;;;;;9.60;5.15;;;19.00;99.90;;;;;;5033675;28;20059;-61
2024/04/01 11:40:31;;;;;;;8.60;5.10;;;19.00;99.90;;;;;;5033575;28;20021;-61
2024/04/01 11:43:07;;;;;;;8.27;4.30;;;19.00;99.90;;;;;;5015705;28;20116;-61
2024/04/01 11:45:36;;;;;;;9.20;5.35;;;19.10;99.90;;;;;;5033424;28;20351;-61
2024/04/01 11:48:03;;;;;;;7.90;4.70;;;19.10;99.90;;;;;;5033485;28;20025;-61
2024/04/01 11:50:31;;;;;;;8.48;4.22;;;19.10;99.90;;;;;;5033488;28;20215;-61
2024/04/01 11:53:07;;;;;;;6.82;4.10;;;19.10;99.90;;;;;;5033279;28;20056;-61
2024/04/01 11:55:34;;;;;;;7.97;4.38;;;19.10;99.90;;;;;;5031930;28;20430;-61
2024/04/01 11:58:09;;;;;;;10.02;4.72;;;19.10;99.90;;;;;;5033223;28;20112;-61
2024/04/01 12:00:35;;;;;;;7.55;4.10;;;19.10;99.90;;;;;;5015335;28;20393;-61
2024/04/01 12:03:02;;;;;;;6.07;3.95;;;19.20;99.90;;;;;;5033192;28;20438;-61
2024/04/01 12:05:28;;;;;;;7.00;4.27;;;19.10;99.90;;;;;;5033064;28;20021;-61
2024/04/01 12:07:56;;;;;;;8.20;4.45;;;19.10;99.90;;;;;;5033040;28;20094;-61
2024/04/01 12:10:22;;;;;;;8.05;4.85;;;19.10;99.90;;;;;;5033249;28;20350;-61
2024/04/01 12:12:49;;;;;;;8.85;4.72;;;19.20;99.90;;;;;;5033464;28;20025;-60
2024/04/01 12:15:17;;;;;;;6.77;3.67;;;19.20;99.90;;;;;;5015522;28;20104;-60
2024/04/01 12:17:43;;;;;;;8.27;4.32;;;19.20;99.90;;;;;;5033103;28;20266;-61
2024/04/01 12:20:10;;;;;;;6.53;4.30;;;19.30;99.90;;;;;;5031853;28;20023;-60
2024/04/01 12:22:37;;;;;;;7.50;4.65;;;19.20;99.90;;;;;;5033102;28;20104;-61
2024/04/01 12:25:04;;;;;;;8.88;4.22;;;19.30;99.90;;;;;;5033010;28;20557;-61
2024/04/01 12:27:33;;;;;;;7.53;4.40;;;19.30;99.90;;;;;;5032990;28;20026;-60
2024/04/01 12:30:06;;;;;;;12.38;4.72;;;19.30;99.90;;;;;;5032525;28;20031;-61
2024/04/01 12:32:43;;;;;;;8.23;4.50;;;19.30;99.90;;;;;;5014992;28;20095;-60
2024/04/01 12:35:14;;;;;;;6.85;4.35;;;19.30;99.90;;;;;;5032662;28;20060;-59
2024/04/01 12:37:43;;;;;;;13.45;4.60;;;19.40;99.90;;;;;;5032594;28;20075;-60
2024/04/01 12:40:10;;;;;;;9.13;4.07;;;19.40;99.90;;;;;;5032626;28;20027;-61
2024/04/01 12:42:37;;;;;;;9.85;4.28;;;19.40;99.90;;;;;;5014771;28;20029;-59
2024/04/01 12:45:05;;;;;;;10.95;3.38;;;19.40;99.90;;;;;;5032648;28;20026;-59
2024/04/01 12:47:31;;;;;;;12.13;2.25;;;19.40;99.90;;;;;;5032173;28;20409;-60
2024/04/01 12:50:00;;;;;;;9.35;2.50;;;19.40;99.90;;;;;;5033187;28;20025;-61
2024/04/01 12:52:40;;;;;;;11.40;2.53;;;19.40;99.90;;;;;;5032477;28;20025;-61
2024/04/01 12:55:18;;;;;;;20.15;4.82;;;19.40;99.90;;;;;;5032329;28;20037;-59
2024/04/01 12:58:10;;;;;;;16.02;3.78;;;19.30;99.90;;;;;;5031699;28;20108;-59
2024/04/01 13:00:39;;;;;;;13.85;3.85;;;19.30;99.90;;;;;;5028625;28;20508;-60